Terminal Aerodrome Forecast
Issued by NWS Memphis, TN

Home | Current Version | Previous Version | Text Only | Print | Product List | Glossary On
Versions: 1 2 3 4 5 6 7 8 9 10 11 12 13
437
FTUS44 KMEG 222326
TAFMKL
TAF
KMKL 222326Z 2300/2324 08006KT P6SM SCT250
     FM231500 15006KT P6SM SCT040
     FM231800 17008KT P6SM BKN250=

USA.gov is the U.S. government's official web portal to all federal, state and local government web resources and services.